Big Trout Lake Airport
CYTL : now visible

Airfield :











YOU CAN JOIN US ON...

 
LOGIN :

Register | Disclaimer

   EN    FR    IT 

 









Legend :    VFR   Marginal VFR   IFR   Intensive IFR   Very Intensive IFR
Visi :
Ceiling :
>= 8 km
>= 3000ft
5 to 8 km
1000 to 3000 ft
1500m to 5 km
500 to 1000 ft
800 to 1500m
200 to 500 ft
< 800m
< 200 ft
Symbols :   Thunderstorms  Fog  Heavy snow  Heavy precipitations  Wind > 20 kt







- Airport Elevation : 729 ft
- IATA code : YTL


CYTL - Big Trout Lake

CURRENT METAR :
  • 212129Z AUTO 29006KT 9SM BKN018 BKN050 OVC070 18/17 A2944 RMK SLP975 DENSITY ALT 1800FT

EXPIRED METARs :
  • 212100Z AUTO 29007KT 9SM FEW013 BKN026 BKN050 BKN065 18/18 A2943 RMK SLP973 DENSITY ALT 1800FT
  • 212038Z AUTO 29006KT 9SM SCT013 BKN026 18/18 A2943 RMK SLP973 DENSITY ALT 1800FT
  • 212000Z AUTO 28005KT 240V310 9SM OVC015 18/18 A2944 RMK SLP975 DENSITY ALT 1800FT
  • 211933Z AUTO 26006KT 9SM SCT008 OVC015 18/18 A2944 RMK SLP976 DENSITY ALT 1700FT
  • 211924Z AUTO 26007KT 9SM SCT008 BKN011 BKN015 OVC060 18/18 A2944 RMK SLP975 DENSITY ALT 1800FT
  • 211913Z AUTO 26006KT 9SM SCT006 BKN012 BKN027 OVC060 18/18 A2944 RMK SLP975 DENSITY ALT 1700FT
  • 211856Z AUTO 26004KT 4SM -RA BR SCT006 SCT011 BKN027 OVC045 18/18 A2944 RMK SLP976 DENSITY ALT 1700FT

TAF TAF CYTL
Valid from the 21 at 20:00 until the 22 at 08:00 UTC


211938Z 2120/2208 26008KT P6SM SCT008 OVC050
TEMPO 2120/2123 5SM -SHRA BR BKN008 OVC050
FM212300 30010KT P6SM OVC020
TEMPO 2123/2202 5SM -DZ BR OVC007
FM220200 32008KT 6SM -DZ BR OVC007 RMK FCST BASED ON AUTO OBS. NXT FCST BY 220200Z
No reported NOTAMs for that airfield.



MET'MAP, your aeronautical weather chart ! - Copyright ORBIFLY December 2007 - Disclaimer

ORBIFLY MET'MAP TEAM :

Programming & Development : Alexandra Zaïnal
Concept & Development : Baudouin d'Aumeries
Co-Development & Prog : Marc-Olivier Méhu
Technical & hardware support : Manuel Goepfert

Contact : metmap@orbifly.com




SOURCES & CREDITS :

   NOAA       Earth
Advisory